createdAt,value
2019-03-24T00:01:58.585Z,78.51
2019-03-24T00:04:29.670Z,78.42
2019-03-24T00:07:00.895Z,78.32
2019-03-24T00:09:31.913Z,78.42
2019-03-24T00:12:03.027Z,78.63
2019-03-24T00:14:34.106Z,78.54
2019-03-24T00:17:04.947Z,78.37
2019-03-24T00:19:35.703Z,77.70
2019-03-24T00:22:07.217Z,77.19
2019-03-24T00:24:38.611Z,77.13
2019-03-24T00:27:09.705Z,77.02
2019-03-24T00:29:40.740Z,76.89
2019-03-24T00:32:11.805Z,76.84
2019-03-24T00:34:42.906Z,76.78
2019-03-24T00:37:13.982Z,76.73
2019-03-24T00:39:45.019Z,76.72
2019-03-24T00:42:16.290Z,76.77
2019-03-24T00:44:47.282Z,76.73
2019-03-24T00:47:18.183Z,76.62
2019-03-24T00:49:49.061Z,76.64
2019-03-24T00:52:19.963Z,77.00
2019-03-24T00:54:51.285Z,77.39
2019-03-24T00:57:22.306Z,77.35
2019-03-24T00:59:53.328Z,77.41
2019-03-24T01:02:24.229Z,77.19
2019-03-24T01:04:55.442Z,77.10
2019-03-24T01:07:26.462Z,76.93
2019-03-24T01:09:57.530Z,76.93
2019-03-24T01:12:28.443Z,76.70
2019-03-24T01:15:01.571Z,77.00
2019-03-24T01:17:33.309Z,76.93
2019-03-24T01:20:04.621Z,76.76
2019-03-24T01:22:35.451Z,76.97
2019-03-24T01:25:06.570Z,77.03
2019-03-24T01:27:37.585Z,76.67
2019-03-24T01:30:09.530Z,76.77
2019-03-24T01:32:40.410Z,77.00
2019-03-24T01:35:11.488Z,77.07
2019-03-24T01:37:42.425Z,77.48
2019-03-24T01:40:13.595Z,78.27
2019-03-24T01:42:44.496Z,78.67
2019-03-24T01:45:15.601Z,79.37
2019-03-24T01:47:46.646Z,80.48
2019-03-24T01:50:17.504Z,80.07
2019-03-24T01:52:48.587Z,79.42
2019-03-24T01:55:19.461Z,79.03
2019-03-24T01:57:50.276Z,78.48
2019-03-24T02:00:21.352Z,79.41
2019-03-24T02:02:52.255Z,80.68
2019-03-24T02:05:23.535Z,80.86
2019-03-24T02:07:54.441Z,80.42
2019-03-24T02:10:27.085Z,80.36
2019-03-24T02:13:01.050Z,80.88
2019-03-24T02:15:32.005Z,80.43
2019-03-24T02:18:03.025Z,80.39
2019-03-24T02:20:34.078Z,81.16
2019-03-24T02:23:05.075Z,80.92
2019-03-24T02:25:36.228Z,80.94
2019-03-24T02:28:07.246Z,80.18
2019-03-24T02:30:38.096Z,79.80
2019-03-24T02:33:09.035Z,79.35
2019-03-24T02:35:40.190Z,79.22
2019-03-24T02:38:12.109Z,79.07
2019-03-24T02:40:46.006Z,78.67
2019-03-24T02:43:18.123Z,78.71
2019-03-24T02:45:49.088Z,78.37
2019-03-24T02:48:20.040Z,78.07
2019-03-24T02:50:51.092Z,77.95
2019-03-24T02:53:24.221Z,78.01
2019-03-24T02:55:55.289Z,78.20
2019-03-24T02:58:26.079Z,78.05
2019-03-24T03:00:57.151Z,78.16
2019-03-24T03:03:28.171Z,78.01
2019-03-24T03:05:59.456Z,77.89
2019-03-24T03:08:30.401Z,78.46
2019-03-24T03:11:01.845Z,77.81
2019-03-24T03:13:32.891Z,77.77
2019-03-24T03:16:03.743Z,77.69
2019-03-24T03:18:34.609Z,77.61
2019-03-24T03:21:05.593Z,77.63
2019-03-24T03:23:36.647Z,77.76
2019-03-24T03:26:07.651Z,77.55
2019-03-24T03:28:38.741Z,77.60
2019-03-24T03:31:09.688Z,78.83
2019-03-24T03:33:40.795Z,78.39
2019-03-24T03:36:11.612Z,78.23
2019-03-24T03:38:42.598Z,78.09
2019-03-24T03:41:13.536Z,78.44
2019-03-24T03:43:44.472Z,78.63
2019-03-24T03:46:16.072Z,78.31
2019-03-24T03:48:47.024Z,78.67
2019-03-24T03:51:17.891Z,78.84
2019-03-24T03:53:48.753Z,77.70
2019-03-24T03:56:19.687Z,78.94
2019-03-24T03:58:50.578Z,78.40
2019-03-24T04:01:21.576Z,77.62
2019-03-24T04:03:52.512Z,80.02
2019-03-24T04:06:23.337Z,80.35
2019-03-24T04:08:54.118Z,80.57
2019-03-24T04:11:24.995Z,80.01
2019-03-24T04:13:55.865Z,80.03
2019-03-24T04:16:26.953Z,80.81
2019-03-24T04:19:00.301Z,80.75
2019-03-24T04:21:31.326Z,80.36
2019-03-24T04:27:01.607Z,80.56
2019-03-24T04:29:32.888Z,81.01
2019-03-24T04:32:03.907Z,81.19
2019-03-24T04:34:36.645Z,81.93
2019-03-24T04:37:07.725Z,81.71
2019-03-24T04:39:38.459Z,81.15
2019-03-24T04:42:10.874Z,80.95
2019-03-24T04:44:42.637Z,81.58
2019-03-24T04:47:16.856Z,81.36
2019-03-24T04:49:50.047Z,81.77
2019-03-24T04:52:29.843Z,81.64
2019-03-24T04:59:22.931Z,82.05
2019-03-24T05:02:10.023Z,82.02
2019-03-24T05:05:08.216Z,81.21
2019-03-24T05:07:44.405Z,81.02
2019-03-24T05:10:27.029Z,80.71
2019-03-24T05:12:58.492Z,81.51
2019-03-24T05:15:31.079Z,80.55
2019-03-24T05:21:10.425Z,80.83
2019-03-24T05:23:41.547Z,80.63
2019-03-24T05:26:12.463Z,79.93
2019-03-24T05:28:43.637Z,80.71
2019-03-24T05:31:14.607Z,81.55
2019-03-24T05:33:45.523Z,81.03
2019-03-24T05:36:16.733Z,80.28
2019-03-24T05:38:47.701Z,79.41
2019-03-24T05:41:19.501Z,80.18
2019-03-24T05:43:50.706Z,82.45
2019-03-24T05:46:24.921Z,80.86
2019-03-24T05:48:58.623Z,81.71
2019-03-24T05:51:29.435Z,80.52
2019-03-24T05:54:00.325Z,80.53
2019-03-24T05:56:31.236Z,80.10
2019-03-24T05:59:02.460Z,78.95
2019-03-24T06:01:33.528Z,80.07
2019-03-24T06:04:04.474Z,80.83
2019-03-24T06:06:37.381Z,81.31
2019-03-24T06:09:15.333Z,80.55
2019-03-24T06:11:50.676Z,80.63
2019-03-24T06:14:24.732Z,80.76
2019-03-24T06:16:57.430Z,80.05
2019-03-24T06:19:28.610Z,80.02
2019-03-24T06:22:33.869Z,79.04
2019-03-24T06:25:02.101Z,79.54
2019-03-24T06:27:48.443Z,78.43
2019-03-24T06:30:22.210Z,78.34
2019-03-24T06:32:53.227Z,78.30
2019-03-24T06:35:24.060Z,76.98
2019-03-24T06:37:55.063Z,77.83
2019-03-24T06:40:25.996Z,77.14
2019-03-24T06:42:59.716Z,77.15
2019-03-24T06:45:37.621Z,76.29
2019-03-24T06:48:08.599Z,75.98
2019-03-24T06:50:39.596Z,76.22
2019-03-24T06:53:13.679Z,76.38
2019-03-24T06:55:48.400Z,76.35
2019-03-24T06:58:21.175Z,76.25
2019-03-24T07:00:52.148Z,77.22
2019-03-24T07:03:23.278Z,77.26
2019-03-24T07:05:56.733Z,77.09
2019-03-24T07:08:28.233Z,76.52
2019-03-24T07:10:59.273Z,77.18
2019-03-24T07:13:36.189Z,77.43
2019-03-24T07:16:09.741Z,77.57
2019-03-24T07:18:40.872Z,76.01
2019-03-24T07:21:12.146Z,75.33
2019-03-24T07:23:43.182Z,74.48
2019-03-24T07:26:14.922Z,74.16
2019-03-24T07:28:49.245Z,73.00
2019-03-24T07:31:23.173Z,72.44
2019-03-24T07:33:54.492Z,72.19
2019-03-24T07:36:25.622Z,71.14
2019-03-24T07:38:56.676Z,71.71
2019-03-24T07:41:28.130Z,71.94
2019-03-24T07:43:59.358Z,71.83
2019-03-24T07:46:30.599Z,71.98
2019-03-24T07:49:01.694Z,72.08
2019-03-24T07:51:32.887Z,73.42
2019-03-24T07:54:07.035Z,72.13
2019-03-24T07:56:40.062Z,70.75
2019-03-24T07:59:14.059Z,71.03
2019-03-24T08:01:45.041Z,71.03
2019-03-24T08:04:20.479Z,71.81
2019-03-24T08:06:51.503Z,72.33
2019-03-24T08:09:26.430Z,72.09
2019-03-24T08:12:00.141Z,71.44
2019-03-24T08:14:31.578Z,71.30
2019-03-24T08:17:02.601Z,72.04
2019-03-24T08:19:33.611Z,71.45
2019-03-24T08:22:09.774Z,69.76
2019-03-24T08:24:50.417Z,68.71
2019-03-24T08:27:24.114Z,70.11
2019-03-24T08:29:56.696Z,71.62
2019-03-24T08:32:27.579Z,72.41
2019-03-24T08:34:58.583Z,71.24
2019-03-24T08:37:32.109Z,70.29
2019-03-24T08:40:03.729Z,69.46
2019-03-24T08:42:34.824Z,69.50
2019-03-24T08:45:08.683Z,71.21
2019-03-24T08:47:42.567Z,69.38
2019-03-24T08:50:13.611Z,68.22
2019-03-24T08:52:44.734Z,66.43
2019-03-24T08:55:15.667Z,64.56
2019-03-24T08:57:49.823Z,64.27
2019-03-24T09:00:30.997Z,64.43
2019-03-24T09:03:02.090Z,62.40
2019-03-24T09:05:35.527Z,63.17
2019-03-24T09:08:07.013Z,63.01
2019-03-24T09:10:37.883Z,61.79
2019-03-24T09:13:09.059Z,61.51
2019-03-24T09:15:40.018Z,60.90
2019-03-24T09:18:14.294Z,61.94
2019-03-24T09:20:45.175Z,60.99
2019-03-24T09:23:16.830Z,63.67
2019-03-24T09:25:49.042Z,64.45
2019-03-24T09:28:21.798Z,65.95
2019-03-24T09:30:55.523Z,63.65
2019-03-24T09:33:26.489Z,63.82
2019-03-24T09:35:57.535Z,63.72
2019-03-24T09:38:29.796Z,61.88
2019-03-24T09:41:03.553Z,61.45
2019-03-24T09:43:34.538Z,62.09
2019-03-24T09:46:05.759Z,64.13
2019-03-24T09:48:40.657Z,65.35
2019-03-24T09:51:15.419Z,64.35
2019-03-24T09:53:47.829Z,61.31
2019-03-24T09:56:20.609Z,59.66
2019-03-24T09:58:51.928Z,59.10
2019-03-24T10:01:27.040Z,60.06
2019-03-24T10:04:02.398Z,58.38
2019-03-24T10:06:36.146Z,57.97
2019-03-24T10:09:08.166Z,57.58
2019-03-24T10:11:42.136Z,57.87
2019-03-24T10:14:13.189Z,57.28
2019-03-24T10:16:44.495Z,56.58
2019-03-24T10:19:18.709Z,56.27
2019-03-24T10:21:50.222Z,54.87
2019-03-24T10:24:21.434Z,57.22
2019-03-24T10:26:55.320Z,56.76
2019-03-24T10:29:26.314Z,57.29
2019-03-24T10:31:57.374Z,57.77
2019-03-24T10:34:35.160Z,57.13
2019-03-24T10:37:07.306Z,57.24
2019-03-24T10:39:38.588Z,56.96
2019-03-24T10:42:09.535Z,54.76
2019-03-24T10:44:44.422Z,54.23
2019-03-24T10:47:15.530Z,53.89
2019-03-24T10:49:46.539Z,52.21
2019-03-24T10:52:21.169Z,52.80
2019-03-24T10:54:54.219Z,51.86
2019-03-24T10:57:25.097Z,51.93
2019-03-24T10:59:56.174Z,51.67
2019-03-24T11:02:33.118Z,50.98
2019-03-24T11:05:04.055Z,51.78
2019-03-24T11:07:37.008Z,52.57
2019-03-24T11:10:13.159Z,52.47
2019-03-24T11:12:44.004Z,53.08
2019-03-24T11:15:15.594Z,50.84
2019-03-24T11:17:47.760Z,50.58
2019-03-24T11:20:18.880Z,49.57
2019-03-24T11:22:49.742Z,49.68
2019-03-24T11:25:22.396Z,48.89
2019-03-24T11:27:53.940Z,46.86
2019-03-24T11:30:25.028Z,47.25
2019-03-24T11:32:57.172Z,45.30
2019-03-24T11:35:28.254Z,45.97
2019-03-24T11:37:59.385Z,45.75
2019-03-24T11:40:30.465Z,45.65
2019-03-24T11:43:01.892Z,44.27
2019-03-24T11:45:33.480Z,43.36
2019-03-24T11:48:06.986Z,44.35
2019-03-24T11:50:37.915Z,44.23
2019-03-24T11:53:10.908Z,42.98
2019-03-24T11:55:42.046Z,42.03
2019-03-24T11:58:15.300Z,40.15
2019-03-24T12:00:46.397Z,38.90
2019-03-24T12:03:18.532Z,37.85
2019-03-24T12:05:49.499Z,38.71
2019-03-24T12:08:20.557Z,40.10
2019-03-24T12:10:51.577Z,38.36
2019-03-24T12:13:22.686Z,38.61
2019-03-24T12:15:53.607Z,37.09
2019-03-24T12:18:30.282Z,36.89
2019-03-24T12:21:01.877Z,37.96
2019-03-24T12:23:32.991Z,37.80
2019-03-24T12:26:04.167Z,37.09
2019-03-24T12:28:37.455Z,37.88
2019-03-24T12:31:09.981Z,35.74
2019-03-24T12:33:41.378Z,37.76
2019-03-24T12:36:12.491Z,39.94
2019-03-24T12:38:49.473Z,36.73
2019-03-24T12:41:22.810Z,36.84
2019-03-24T12:43:53.599Z,39.65
2019-03-24T12:46:24.279Z,39.80
2019-03-24T12:48:55.091Z,42.15
2019-03-24T12:51:25.909Z,41.65
2019-03-24T12:53:57.035Z,40.21
2019-03-24T12:56:27.725Z,39.65
2019-03-24T12:58:59.433Z,38.47
2019-03-24T13:01:33.015Z,39.07
2019-03-24T13:04:03.759Z,38.14
2019-03-24T13:06:36.165Z,38.89
2019-03-24T13:09:08.306Z,38.40
2019-03-24T13:11:39.483Z,38.29
2019-03-24T13:14:11.363Z,37.01
2019-03-24T13:16:45.198Z,37.27
2019-03-24T13:19:15.920Z,38.10
2019-03-24T13:21:47.403Z,38.74
2019-03-24T13:24:18.091Z,38.60
2019-03-24T13:26:50.543Z,40.52
2019-03-24T13:29:22.582Z,39.20
2019-03-24T13:31:56.019Z,40.89
2019-03-24T13:34:29.617Z,41.05
2019-03-24T13:37:00.674Z,42.19
2019-03-24T13:39:33.062Z,40.01
2019-03-24T13:42:04.014Z,38.96
2019-03-24T13:44:34.811Z,39.80
2019-03-24T13:47:05.664Z,39.61
2019-03-24T13:49:36.471Z,39.53
2019-03-24T13:52:07.165Z,39.58
2019-03-24T13:54:37.895Z,38.82
2019-03-24T13:57:11.792Z,38.16
2019-03-24T13:59:42.551Z,38.48
2019-03-24T14:02:13.230Z,38.96
2019-03-24T14:04:43.967Z,39.94
2019-03-24T14:07:16.983Z,38.95
2019-03-24T14:09:50.480Z,40.10
2019-03-24T14:12:21.242Z,41.00
2019-03-24T14:14:52.218Z,40.43
2019-03-24T14:17:25.900Z,40.43
2019-03-24T14:19:57.920Z,41.80
2019-03-24T14:22:28.790Z,40.97
2019-03-24T14:24:59.486Z,42.53
2019-03-24T14:27:32.704Z,43.92
2019-03-24T14:30:03.572Z,43.43
2019-03-24T14:32:38.313Z,43.16
2019-03-24T14:35:09.376Z,42.18
2019-03-24T14:37:40.837Z,44.43
2019-03-24T14:40:11.990Z,43.72
2019-03-24T14:42:42.782Z,42.42
2019-03-24T14:45:13.958Z,41.99
2019-03-24T14:47:44.820Z,42.60
2019-03-24T14:50:15.882Z,42.07
2019-03-24T14:52:50.776Z,43.22
2019-03-24T14:55:22.326Z,43.60
2019-03-24T14:57:54.798Z,42.40
2019-03-24T15:00:36.032Z,41.26
2019-03-24T15:03:07.301Z,43.03
2019-03-24T15:05:38.394Z,42.86
2019-03-24T15:08:11.363Z,41.87
2019-03-24T15:10:47.483Z,41.59
2019-03-24T15:13:18.645Z,40.58
2019-03-24T15:15:49.436Z,41.03
2019-03-24T15:18:20.422Z,36.32
2019-03-24T15:21:04.910Z,35.63
2019-03-24T15:23:32.761Z,35.65
2019-03-24T15:26:05.022Z,31.58
2019-03-24T15:28:36.434Z,30.73
2019-03-24T15:31:07.698Z,32.47
2019-03-24T15:33:38.932Z,34.61
2019-03-24T15:36:09.984Z,34.29
2019-03-24T15:38:41.208Z,35.26
2019-03-24T15:41:18.379Z,37.35
2019-03-24T15:43:49.663Z,38.44
2019-03-24T15:46:20.925Z,38.59
2019-03-24T15:48:51.854Z,39.08
2019-03-24T15:51:22.998Z,39.18
2019-03-24T15:53:55.196Z,39.33
2019-03-24T15:56:26.539Z,40.31
2019-03-24T15:59:02.844Z,41.44
2019-03-24T16:01:33.952Z,42.06
2019-03-24T16:04:04.887Z,42.03
2019-03-24T16:06:35.874Z,41.90
2019-03-24T16:09:09.929Z,40.52
2019-03-24T16:11:41.131Z,39.16
2019-03-24T16:14:12.095Z,38.52
2019-03-24T16:16:43.033Z,37.84
2019-03-24T16:19:13.872Z,37.08
2019-03-24T16:21:44.773Z,36.33
2019-03-24T16:24:15.935Z,35.45
2019-03-24T16:26:47.952Z,35.00
2019-03-24T16:29:18.788Z,34.73
2019-03-24T16:31:49.777Z,34.63
2019-03-24T16:34:23.502Z,35.63
2019-03-24T16:36:54.398Z,35.32
2019-03-24T16:39:25.341Z,35.93
2019-03-24T16:42:00.583Z,35.02
2019-03-24T16:44:31.409Z,32.57
2019-03-24T16:47:05.292Z,32.01
2019-03-24T16:49:36.310Z,32.32
2019-03-24T16:52:08.679Z,32.94
2019-03-24T16:54:39.755Z,33.28
2019-03-24T16:57:10.627Z,33.44
2019-03-24T16:59:42.016Z,32.85
2019-03-24T17:02:18.577Z,32.75
2019-03-24T17:04:52.069Z,33.26
2019-03-24T17:07:23.047Z,33.40
2019-03-24T17:09:56.080Z,33.82
2019-03-24T17:12:36.991Z,33.47
2019-03-24T17:15:10.563Z,33.90
2019-03-24T17:17:41.769Z,34.08
2019-03-24T17:20:16.584Z,35.32
2019-03-24T17:22:52.063Z,36.02
2019-03-24T17:25:23.383Z,36.97
2019-03-24T17:28:01.255Z,36.94
2019-03-24T17:30:33.698Z,37.42
2019-03-24T17:33:04.878Z,37.78
2019-03-24T17:35:35.960Z,38.13
2019-03-24T17:38:06.991Z,39.08
2019-03-24T17:40:39.084Z,39.34
2019-03-24T17:43:12.233Z,40.12
2019-03-24T17:45:44.270Z,40.84
2019-03-24T17:48:16.103Z,41.23
2019-03-24T17:50:47.150Z,41.71
2019-03-24T17:53:18.035Z,42.34
2019-03-24T17:55:49.073Z,42.68
2019-03-24T17:58:21.297Z,43.02
2019-03-24T18:00:56.657Z,43.00
2019-03-24T18:03:32.909Z,43.29
2019-03-24T18:06:04.052Z,43.49
2019-03-24T18:08:35.337Z,43.74
2019-03-24T18:11:07.750Z,43.94
2019-03-24T18:13:39.721Z,44.10
2019-03-24T18:16:20.281Z,44.23
2019-03-24T18:18:46.434Z,44.32
2019-03-24T18:21:19.207Z,44.41
2019-03-24T18:23:51.535Z,44.72
2019-03-24T18:26:28.360Z,44.91
2019-03-24T18:29:01.992Z,45.08
2019-03-24T18:31:36.100Z,45.23
2019-03-24T18:34:08.494Z,45.42
2019-03-24T18:36:40.855Z,45.39
2019-03-24T18:39:16.225Z,45.60
2019-03-24T18:41:47.625Z,45.80
2019-03-24T18:44:20.438Z,45.76
2019-03-24T18:47:00.375Z,46.01
2019-03-24T18:49:35.434Z,46.44
2019-03-24T18:52:09.961Z,46.56
2019-03-24T18:54:40.921Z,46.95
2019-03-24T18:57:12.237Z,46.92
2019-03-24T18:59:43.185Z,47.18
2019-03-24T19:02:14.461Z,47.21
2019-03-24T19:04:49.042Z,47.21
2019-03-24T19:07:20.316Z,47.18
2019-03-24T19:09:51.204Z,47.30
2019-03-24T19:12:22.089Z,47.45
2019-03-24T19:14:53.024Z,47.73
2019-03-24T19:17:23.917Z,48.11
2019-03-24T19:19:54.952Z,48.22
2019-03-24T19:22:33.479Z,48.73
2019-03-24T19:24:58.745Z,48.92
2019-03-24T19:27:29.502Z,49.06
2019-03-24T19:30:00.390Z,49.65
2019-03-24T19:32:31.165Z,49.68
2019-03-24T19:35:02.170Z,50.09
2019-03-24T19:37:33.448Z,50.12
2019-03-24T19:40:04.497Z,50.59
2019-03-24T19:42:35.371Z,51.14
2019-03-24T19:45:06.352Z,51.26
2019-03-24T19:47:38.831Z,51.37
2019-03-24T19:50:09.866Z,51.71
2019-03-24T19:52:44.867Z,51.61
2019-03-24T19:55:14.306Z,51.78
2019-03-24T19:57:47.361Z,51.62
2019-03-24T20:00:18.421Z,51.76
2019-03-24T20:02:49.260Z,51.72
2019-03-24T20:05:20.264Z,51.72
2019-03-24T20:07:51.178Z,51.77
2019-03-24T20:10:22.004Z,51.85
2019-03-24T20:12:53.197Z,51.80
2019-03-24T20:15:31.328Z,52.09
2019-03-24T20:18:05.300Z,52.10
2019-03-24T20:20:36.277Z,52.19
2019-03-24T20:23:07.363Z,52.37
2019-03-24T20:25:39.994Z,52.12
2019-03-24T20:28:12.952Z,52.30
2019-03-24T20:30:47.099Z,52.29
2019-03-24T20:33:20.903Z,52.45
2019-03-24T20:35:51.752Z,52.64
2019-03-24T20:38:22.528Z,52.67
2019-03-24T20:40:53.374Z,52.84
2019-03-24T20:43:24.164Z,52.70
2019-03-24T20:45:59.411Z,52.59
2019-03-24T20:48:30.228Z,52.75
2019-03-24T20:51:01.119Z,52.69
2019-03-24T20:53:32.303Z,53.07
2019-03-24T20:56:03.614Z,53.34
2019-03-24T20:58:36.349Z,53.52
2019-03-24T21:01:07.460Z,53.71
2019-03-24T21:03:38.274Z,54.13
2019-03-24T21:06:09.325Z,54.72
2019-03-24T21:08:40.182Z,54.66
2019-03-24T21:11:12.289Z,54.81
2019-03-24T21:13:49.426Z,55.60
2019-03-24T21:16:30.095Z,56.22
2019-03-24T21:19:08.721Z,56.87
2019-03-24T21:21:42.561Z,57.00
2019-03-24T21:24:13.413Z,57.49
2019-03-24T21:26:44.242Z,57.82
2019-03-24T21:29:16.466Z,58.05
2019-03-24T21:31:47.502Z,58.44
2019-03-24T21:34:18.857Z,58.68
2019-03-24T21:36:49.791Z,58.95
2019-03-24T21:39:21.257Z,59.32
2019-03-24T21:41:52.420Z,59.73
2019-03-24T21:44:23.207Z,59.95
2019-03-24T21:46:54.187Z,60.11
2019-03-24T21:49:25.146Z,60.52
2019-03-24T21:51:56.220Z,60.44
2019-03-24T21:54:28.142Z,60.39
2019-03-24T21:56:59.147Z,60.64
2019-03-24T21:59:31.955Z,60.61
2019-03-24T22:02:02.970Z,60.93
2019-03-24T22:04:34.413Z,60.85
2019-03-24T22:07:06.783Z,60.64
2019-03-24T22:09:37.656Z,60.88
2019-03-24T22:12:11.088Z,60.94
2019-03-24T22:14:41.889Z,60.90
2019-03-24T22:17:12.726Z,60.54
2019-03-24T22:19:43.492Z,60.16
2019-03-24T22:22:14.571Z,60.02
2019-03-24T22:24:45.552Z,60.15
2019-03-24T22:27:16.376Z,60.01
2019-03-24T22:29:47.248Z,59.88
2019-03-24T22:32:20.524Z,60.03
2019-03-24T22:34:51.247Z,59.71
2019-03-24T22:37:23.099Z,59.66
2019-03-24T22:39:53.821Z,59.87
2019-03-24T22:42:24.683Z,60.00
2019-03-24T22:44:55.559Z,60.51
2019-03-24T22:47:26.414Z,60.81
2019-03-24T22:49:57.469Z,60.79
2019-03-24T22:52:28.395Z,60.85
2019-03-24T22:54:59.233Z,60.95
2019-03-24T22:57:32.571Z,60.82
2019-03-24T23:00:02.467Z,60.67
2019-03-24T23:02:35.033Z,60.48
2019-03-24T23:05:07.387Z,60.31
2019-03-24T23:07:38.179Z,60.04
2019-03-24T23:10:09.083Z,60.09
2019-03-24T23:12:41.247Z,60.09
2019-03-24T23:15:13.269Z,59.59
2019-03-24T23:17:44.187Z,59.55
2019-03-24T23:20:14.965Z,59.69
2019-03-24T23:22:45.776Z,59.61
2019-03-24T23:25:19.345Z,59.13
2019-03-24T23:27:50.182Z,58.97
2019-03-24T23:30:21.235Z,59.22
2019-03-24T23:32:52.243Z,59.56
2019-03-24T23:35:23.190Z,60.19
2019-03-24T23:37:55.208Z,60.75
2019-03-24T23:40:26.045Z,61.35
2019-03-24T23:42:56.867Z,61.53
2019-03-24T23:45:27.660Z,62.14
2019-03-24T23:47:58.549Z,62.23
2019-03-24T23:50:29.352Z,62.88
2019-03-24T23:53:03.333Z,63.28
2019-03-24T23:55:34.251Z,63.10
2019-03-24T23:58:05.034Z,63.60
